Time;durP1;ratioP1;P1;durP2;ratioP2;P2;SDS_P1;SDS_P2;PMS_P1;PMS_P2;Temp;Humidity;BMP_temperature;BMP_pressure;BME280_temperature;BME280_humidity;BME280_pressure;Samples;Min_cycle;Max_cycle;Signal;HPM_P1;HPM_P2
2021/07/02 00:00:33;;;;;;;12.58;9.08;;;;;;;;;;1902157;75;21112;-48
2021/07/02 00:03:02;;;;;;;16.20;8.85;;;;;;;;;;1902301;75;21087;-50
2021/07/02 00:05:30;;;;;;;14.58;9.28;;;;;;;;;;1902247;75;20998;-48
2021/07/02 00:07:59;;;;;;;10.32;8.75;;;;;;;;;;1902115;75;21041;-49
2021/07/02 00:10:28;;;;;;;12.25;8.08;;;;;;;;;;1902155;75;21112;-50
2021/07/02 00:12:57;;;;;;;17.00;8.83;;;;;;;;;;1902321;75;21115;-51
2021/07/02 00:15:25;;;;;;;12.60;9.03;;;;;;;;;;1902173;75;21030;-49
2021/07/02 00:17:54;;;;;;;21.62;9.18;;;;;;;;;;1902170;75;21099;-51
2021/07/02 00:20:23;;;;;;;14.05;8.95;;;;;;;;;;1902081;75;21108;-47
2021/07/02 00:22:52;;;;;;;11.90;9.03;;;;;;;;;;1902152;74;21030;-47
2021/07/02 00:25:21;;;;;;;14.83;8.63;;;;;;;;;;1902144;75;21030;-50
2021/07/02 00:27:50;;;;;;;13.58;9.55;;;;;;;;;;1902204;75;21038;-48
2021/07/02 00:30:19;;;;;;;12.68;8.95;;;;;;;;;;1902136;75;21147;-49
2021/07/02 00:32:48;;;;;;;12.37;9.08;;;;;;;;;;1902162;75;21083;-49
2021/07/02 00:35:17;;;;;;;15.35;9.25;;;;;;;;;;1902293;75;21123;-47
2021/07/02 00:37:45;;;;;;;12.07;9.45;;;;;;;;;;1902287;75;21053;-48
2021/07/02 00:40:14;;;;;;;13.60;9.15;;;;;;;;;;1902248;75;21120;-47
2021/07/02 00:42:43;;;;;;;12.53;9.33;;;;;;;;;;1902296;75;21029;-47
2021/07/02 00:45:13;;;;;;;9.63;8.28;;;;;;;;;;1902249;75;21561;-50
2021/07/02 00:47:42;;;;;;;10.90;8.38;;;;;;;;;;1876969;75;21123;-47
2021/07/02 00:50:12;;;;;;;9.78;8.30;;;;;;;;;;1902392;74;21022;-47
2021/07/02 00:52:42;;;;;;;11.20;8.45;;;;;;;;;;1902348;75;21026;-49
2021/07/02 00:55:11;;;;;;;11.40;8.03;;;;;;;;;;1902224;75;21468;-51
2021/07/02 00:57:41;;;;;;;9.23;8.00;;;;;;;;;;1902262;74;21025;-50
2021/07/02 01:00:10;;;;;;;13.30;8.10;;;;;;;;;;1902074;75;21100;-48
2021/07/02 01:02:39;;;;;;;8.88;7.28;;;;;;;;;;1902116;75;21084;-48
2021/07/02 01:05:09;;;;;;;10.65;7.40;;;;;;;;;;1902300;75;21158;-48
2021/07/02 01:07:40;;;;;;;10.28;7.95;;;;;;;;;;1901962;75;21076;-48
2021/07/02 01:10:10;;;;;;;10.32;6.28;;;;;;;;;;1902242;75;21025;-48
2021/07/02 01:12:40;;;;;;;14.55;8.15;;;;;;;;;;1902094;75;21139;-48
2021/07/02 01:15:19;;;;;;;10.90;7.90;;;;;;;;;;1902183;75;21143;-49
2021/07/02 01:17:48;;;;;;;10.20;7.58;;;;;;;;;;1876937;75;21604;-48
2021/07/02 01:20:17;;;;;;;15.70;8.13;;;;;;;;;;1902172;75;21112;-50
2021/07/02 01:22:48;;;;;;;13.98;8.40;;;;;;;;;;1902023;75;21119;-48
2021/07/02 01:25:17;;;;;;;12.45;7.62;;;;;;;;;;1902261;75;21099;-48
2021/07/02 01:27:46;;;;;;;12.28;7.53;;;;;;;;;;1902229;75;21030;-51
2021/07/02 01:30:17;;;;;;;14.20;7.60;;;;;;;;;;1902142;75;21095;-49
2021/07/02 01:32:46;;;;;;;9.70;7.33;;;;;;;;;;1902275;75;21111;-49
2021/07/02 01:35:17;;;;;;;15.20;7.78;;;;;;;;;;1902199;75;21038;-51
2021/07/02 01:37:46;;;;;;;14.43;7.97;;;;;;;;;;1902304;75;21124;-48
2021/07/02 01:40:15;;;;;;;13.38;7.12;;;;;;;;;;1902156;75;21010;-51
2021/07/02 01:42:44;;;;;;;9.18;7.17;;;;;;;;;;1902266;75;21022;-51
2021/07/02 01:45:13;;;;;;;12.23;7.37;;;;;;;;;;1902171;75;21022;-46
2021/07/02 01:47:43;;;;;;;11.60;7.87;;;;;;;;;;1902130;74;21464;-51
2021/07/02 01:50:13;;;;;;;14.68;7.80;;;;;;;;;;1902086;75;21054;-49
2021/07/02 01:52:42;;;;;;;13.38;7.53;;;;;;;;;;1902194;75;21099;-49
2021/07/02 01:55:11;;;;;;;12.23;8.58;;;;;;;;;;1902256;75;21034;-48
2021/07/02 01:57:40;;;;;;;19.20;9.78;;;;;;;;;;1902126;75;21083;-51
2021/07/02 02:00:11;;;;;;;16.82;9.55;;;;;;;;;;1901300;75;21013;-48
2021/07/02 02:02:45;;;;;;;20.23;9.75;;;;;;;;;;1902425;74;21680;-49
2021/07/02 02:05:15;;;;;;;19.55;8.48;;;;;;;;;;1901437;75;21181;-48
2021/07/02 02:07:45;;;;;;;15.45;8.43;;;;;;;;;;1902358;74;21030;-48
2021/07/02 02:10:14;;;;;;;14.60;8.48;;;;;;;;;;1902180;75;21014;-48
2021/07/02 02:12:44;;;;;;;19.23;9.70;;;;;;;;;;1902112;75;21104;-49
2021/07/02 02:15:14;;;;;;;15.45;8.20;;;;;;;;;;1902103;75;21030;-51
2021/07/02 02:17:44;;;;;;;19.65;9.43;;;;;;;;;;1901688;75;21037;-48
2021/07/02 02:20:14;;;;;;;26.97;9.13;;;;;;;;;;1902151;75;21095;-51
2021/07/02 02:22:43;;;;;;;18.05;8.70;;;;;;;;;;1902213;75;21041;-49
2021/07/02 02:25:12;;;;;;;27.50;10.68;;;;;;;;;;1902088;75;21034;-48
2021/07/02 02:27:42;;;;;;;23.80;10.80;;;;;;;;;;1902181;75;21087;-49
2021/07/02 02:30:11;;;;;;;14.35;9.23;;;;;;;;;;1902057;75;21107;-48
2021/07/02 02:32:40;;;;;;;12.93;8.48;;;;;;;;;;1902278;75;21104;-50
2021/07/02 02:35:10;;;;;;;18.15;9.50;;;;;;;;;;1902167;75;21053;-47
2021/07/02 02:37:39;;;;;;;15.75;9.70;;;;;;;;;;1876943;75;21151;-48
2021/07/02 02:40:09;;;;;;;14.68;9.13;;;;;;;;;;1902048;75;21014;-47
2021/07/02 02:42:39;;;;;;;21.52;9.78;;;;;;;;;;1902111;75;21034;-49
2021/07/02 02:45:08;;;;;;;12.00;8.13;;;;;;;;;;1902085;75;21001;-50
2021/07/02 02:47:38;;;;;;;39.42;12.85;;;;;;;;;;1902224;75;21093;-50
2021/07/02 02:50:08;;;;;;;14.65;9.58;;;;;;;;;;1902031;74;21057;-49
2021/07/02 02:52:37;;;;;;;24.43;9.65;;;;;;;;;;1902073;75;21038;-49
2021/07/02 02:55:06;;;;;;;12.33;8.60;;;;;;;;;;1902211;75;21038;-47
2021/07/02 02:57:35;;;;;;;12.00;8.20;;;;;;;;;;1902079;74;20994;-47
2021/07/02 03:00:08;;;;;;;10.63;8.40;;;;;;;;;;1902095;75;21034;-50
2021/07/02 03:02:37;;;;;;;13.28;8.03;;;;;;;;;;1902168;75;21111;-50
2021/07/02 03:05:07;;;;;;;67.08;13.40;;;;;;;;;;1902132;75;20997;-51
2021/07/02 03:07:36;;;;;;;13.03;7.87;;;;;;;;;;1902293;75;21052;-49
2021/07/02 03:10:05;;;;;;;12.80;8.20;;;;;;;;;;1902153;75;21091;-49
2021/07/02 03:12:35;;;;;;;9.75;8.10;;;;;;;;;;1902171;75;21033;-49
2021/07/02 03:15:04;;;;;;;12.05;8.35;;;;;;;;;;1902096;75;21021;-49
2021/07/02 03:17:33;;;;;;;11.50;7.80;;;;;;;;;;1902375;75;20982;-48
2021/07/02 03:20:02;;;;;;;10.82;7.25;;;;;;;;;;1902173;75;21108;-49
2021/07/02 03:22:31;;;;;;;11.10;7.35;;;;;;;;;;1902064;75;21034;-50
2021/07/02 03:25:00;;;;;;;13.55;8.40;;;;;;;;;;1902186;75;21082;-48
2021/07/02 03:27:29;;;;;;;15.78;7.87;;;;;;;;;;1902181;75;21039;-48
2021/07/02 03:29:58;;;;;;;12.68;8.08;;;;;;;;;;1901948;74;21022;-51
2021/07/02 03:32:28;;;;;;;13.32;8.10;;;;;;;;;;1902131;75;21112;-50
2021/07/02 03:34:57;;;;;;;17.27;7.78;;;;;;;;;;1902125;75;21034;-48
2021/07/02 03:37:27;;;;;;;13.43;8.15;;;;;;;;;;1901971;75;21018;-51
2021/07/02 03:39:56;;;;;;;11.35;7.58;;;;;;;;;;1902189;75;21108;-50
2021/07/02 03:42:25;;;;;;;9.00;7.17;;;;;;;;;;1902016;75;21102;-48
2021/07/02 03:44:54;;;;;;;8.10;6.97;;;;;;;;;;1902156;74;21100;-49
2021/07/02 03:47:23;;;;;;;11.15;7.33;;;;;;;;;;1902230;75;21064;-51
2021/07/02 03:49:52;;;;;;;15.20;8.40;;;;;;;;;;1913521;74;21143;-48
2021/07/02 03:52:22;;;;;;;9.85;7.55;;;;;;;;;;1924684;74;21024;-49
2021/07/02 03:54:51;;;;;;;10.55;7.50;;;;;;;;;;1924618;74;21021;-51
2021/07/02 03:57:20;;;;;;;13.85;7.72;;;;;;;;;;1924660;74;21158;-48
2021/07/02 03:59:50;;;;;;;15.53;8.25;;;;;;;;;;1924601;74;21094;-51
2021/07/02 04:02:20;;;;;;;16.42;7.30;;;;;;;;;;1924620;74;20997;-48
2021/07/02 04:04:49;;;;;;;13.40;8.00;;;;;;;;;;1924555;74;20989;-48
2021/07/02 04:07:17;;;;;;;15.63;8.58;;;;;;;;;;1924576;74;21097;-51
2021/07/02 04:09:46;;;;;;;15.05;8.00;;;;;;;;;;1924581;74;21033;-50
2021/07/02 04:12:15;;;;;;;10.78;7.50;;;;;;;;;;1924666;74;21029;-51
2021/07/02 04:14:44;;;;;;;13.32;7.47;;;;;;;;;;1924566;74;21029;-50
2021/07/02 04:17:13;;;;;;;13.80;7.92;;;;;;;;;;1924579;74;21103;-51
2021/07/02 04:19:42;;;;;;;16.52;8.43;;;;;;;;;;1924543;74;21029;-51
2021/07/02 04:22:11;;;;;;;18.55;8.15;;;;;;;;;;1924481;74;21114;-50
2021/07/02 04:24:40;;;;;;;14.35;9.20;;;;;;;;;;1924543;74;21182;-50
2021/07/02 04:27:08;;;;;;;12.45;9.73;;;;;;;;;;1924487;74;21486;-51
2021/07/02 04:29:37;;;;;;;16.97;10.48;;;;;;;;;;1924507;74;21045;-50
2021/07/02 04:32:06;;;;;;;24.12;14.35;;;;;;;;;;1924712;74;21036;-49
2021/07/02 04:34:35;;;;;;;11.30;9.48;;;;;;;;;;1924519;74;21020;-48
2021/07/02 04:37:04;;;;;;;12.90;8.85;;;;;;;;;;1924503;74;21408;-48
2021/07/02 04:39:33;;;;;;;12.03;8.78;;;;;;;;;;1924695;74;21036;-51
2021/07/02 04:42:02;;;;;;;14.50;9.15;;;;;;;;;;1924572;74;21037;-49
2021/07/02 04:44:31;;;;;;;15.48;9.80;;;;;;;;;;1924569;74;21096;-48
2021/07/02 04:46:59;;;;;;;19.30;9.93;;;;;;;;;;1924789;74;21033;-48
2021/07/02 04:49:29;;;;;;;13.30;8.18;;;;;;;;;;1920994;74;21124;-48
2021/07/02 04:51:57;;;;;;;11.50;8.13;;;;;;;;;;1900401;74;21022;-51
2021/07/02 04:54:26;;;;;;;13.58;8.55;;;;;;;;;;1900340;74;21007;-50
2021/07/02 04:56:55;;;;;;;15.65;8.80;;;;;;;;;;1900338;75;21084;-51
2021/07/02 04:59:36;;;;;;;14.33;10.45;;;;;;;;;;1900232;75;21034;-49
2021/07/02 05:01:55;;;;;;;13.98;8.95;;;;;;;;;;1894845;74;21136;-52
2021/07/02 05:04:24;;;;;;;13.93;8.83;;;;;;;;;;1900101;75;21010;-50
2021/07/02 05:06:53;;;;;;;14.40;7.70;;;;;;;;;;1900098;74;21112;-51
2021/07/02 05:09:22;;;;;;;14.30;8.48;;;;;;;;;;1900082;75;21038;-51
2021/07/02 05:11:51;;;;;;;14.28;8.38;;;;;;;;;;1900236;75;21095;-51
2021/07/02 05:14:19;;;;;;;12.33;8.78;;;;;;;;;;1900248;75;21010;-51
2021/07/02 05:16:48;;;;;;;14.70;9.03;;;;;;;;;;1900110;75;21100;-49
2021/07/02 05:19:17;;;;;;;13.25;8.13;;;;;;;;;;1900000;74;21103;-52
2021/07/02 05:21:46;;;;;;;9.50;8.25;;;;;;;;;;1900192;75;21018;-52
2021/07/02 05:24:14;;;;;;;11.60;8.68;;;;;;;;;;1900234;74;21014;-52
2021/07/02 05:26:43;;;;;;;11.83;8.68;;;;;;;;;;1900258;74;21026;-52
2021/07/02 05:29:12;;;;;;;22.90;9.45;;;;;;;;;;1900032;75;21032;-51
2021/07/02 05:31:40;;;;;;;17.67;10.03;;;;;;;;;;1899981;74;21151;-51
2021/07/02 05:34:11;;;;;;;12.00;8.98;;;;;;;;;;1899999;75;21119;-52
2021/07/02 05:36:39;;;;;;;13.35;9.25;;;;;;;;;;1900138;74;21006;-52
2021/07/02 05:39:08;;;;;;;13.35;8.93;;;;;;;;;;1900212;74;21066;-51
2021/07/02 05:41:37;;;;;;;9.40;8.25;;;;;;;;;;1900211;74;21103;-52
2021/07/02 05:44:06;;;;;;;15.15;8.63;;;;;;;;;;1900239;75;21034;-51
2021/07/02 05:46:35;;;;;;;15.10;9.43;;;;;;;;;;1900230;75;21042;-49
2021/07/02 05:49:05;;;;;;;15.45;9.88;;;;;;;;;;1900251;74;21030;-52
2021/07/02 05:51:34;;;;;;;16.97;9.10;;;;;;;;;;1901607;74;21054;-51
2021/07/02 05:54:03;;;;;;;29.35;9.63;;;;;;;;;;1902093;74;21095;-52
2021/07/02 05:56:32;;;;;;;16.57;11.93;;;;;;;;;;1902064;75;20998;-50
2021/07/02 05:59:01;;;;;;;10.50;8.40;;;;;;;;;;1902037;75;21010;-50
2021/07/02 06:01:30;;;;;;;15.85;9.28;;;;;;;;;;1902346;75;21084;-53
2021/07/02 06:03:59;;;;;;;9.93;7.87;;;;;;;;;;1901833;75;21041;-52
2021/07/02 06:06:28;;;;;;;10.72;7.58;;;;;;;;;;1902071;75;21037;-50
2021/07/02 06:08:57;;;;;;;10.15;7.85;;;;;;;;;;1901982;75;21026;-51
2021/07/02 06:11:26;;;;;;;12.93;6.97;;;;;;;;;;1902115;75;21014;-50
2021/07/02 06:13:54;;;;;;;27.90;9.18;;;;;;;;;;1902033;74;21034;-52
2021/07/02 06:16:23;;;;;;;17.67;13.38;;;;;;;;;;1902072;75;21111;-49
2021/07/02 06:18:52;;;;;;;9.33;8.30;;;;;;;;;;1902088;75;21026;-52
2021/07/02 06:21:20;;;;;;;11.65;6.92;;;;;;;;;;1902111;75;21143;-51
2021/07/02 06:23:49;;;;;;;10.53;6.97;;;;;;;;;;1902173;75;21018;-49
2021/07/02 06:26:18;;;;;;;11.28;6.92;;;;;;;;;;1902071;75;21033;-49
2021/07/02 06:28:46;;;;;;;9.60;6.55;;;;;;;;;;1901984;75;20994;-51
2021/07/02 06:31:15;;;;;;;8.83;6.78;;;;;;;;;;1902087;75;21104;-49
2021/07/02 06:33:44;;;;;;;9.75;5.85;;;;;;;;;;1902055;75;21030;-51
2021/07/02 06:36:13;;;;;;;9.40;6.40;;;;;;;;;;1902085;75;21123;-49
2021/07/02 06:38:42;;;;;;;9.95;5.50;;;;;;;;;;1900431;74;21116;-50
2021/07/02 06:41:11;;;;;;;10.60;6.40;;;;;;;;;;1900080;75;21496;-50
2021/07/02 06:43:40;;;;;;;11.03;6.55;;;;;;;;;;1901563;75;21029;-48
2021/07/02 06:46:09;;;;;;;11.90;6.00;;;;;;;;;;1901693;75;21133;-51
2021/07/02 06:48:38;;;;;;;15.38;7.78;;;;;;;;;;1901674;75;21064;-46
2021/07/02 06:51:07;;;;;;;7.05;5.80;;;;;;;;;;1888509;75;21049;-47
2021/07/02 06:53:36;;;;;;;12.68;6.58;;;;;;;;;;1872563;75;21022;-46
2021/07/02 06:56:05;;;;;;;12.15;6.20;;;;;;;;;;1872490;76;21030;-46
2021/07/02 06:58:33;;;;;;;9.20;6.15;;;;;;;;;;1872377;77;21104;-50
2021/07/02 07:01:02;;;;;;;8.08;6.25;;;;;;;;;;1872690;77;21026;-50
2021/07/02 07:03:31;;;;;;;11.08;6.08;;;;;;;;;;1892454;75;21187;-52
2021/07/02 07:06:00;;;;;;;13.58;6.17;;;;;;;;;;1886489;75;21018;-53
2021/07/02 07:08:29;;;;;;;9.88;6.10;;;;;;;;;;1895353;75;21177;-48
2021/07/02 07:10:58;;;;;;;10.45;5.97;;;;;;;;;;1847647;76;21472;-46
2021/07/02 07:13:27;;;;;;;9.90;6.58;;;;;;;;;;1882036;76;21010;-48
2021/07/02 07:15:56;;;;;;;13.13;6.30;;;;;;;;;;1881452;76;21025;-50
2021/07/02 07:18:24;;;;;;;11.33;6.42;;;;;;;;;;1904748;75;21091;-49
2021/07/02 07:20:53;;;;;;;11.53;6.72;;;;;;;;;;1891009;75;21006;-47
2021/07/02 07:23:22;;;;;;;14.47;7.12;;;;;;;;;;1907487;75;21030;-47
2021/07/02 07:25:51;;;;;;;8.73;6.45;;;;;;;;;;1914285;75;21087;-53
2021/07/02 07:28:20;;;;;;;14.35;6.40;;;;;;;;;;1914466;75;21045;-51
2021/07/02 07:30:48;;;;;;;10.85;6.12;;;;;;;;;;1908955;75;21060;-53
2021/07/02 07:33:18;;;;;;;14.23;6.50;;;;;;;;;;1894565;75;21018;-50
2021/07/02 07:35:48;;;;;;;11.08;6.10;;;;;;;;;;1897916;75;21002;-50
2021/07/02 07:38:18;;;;;;;26.82;7.97;;;;;;;;;;1909338;75;21109;-50
2021/07/02 07:40:47;;;;;;;10.13;5.35;;;;;;;;;;1912673;75;21594;-52
2021/07/02 07:43:18;;;;;;;11.33;6.60;;;;;;;;;;1894536;75;21034;-51
2021/07/02 07:45:46;;;;;;;10.32;6.22;;;;;;;;;;1881296;76;21656;-52
2021/07/02 07:48:15;;;;;;;20.70;6.47;;;;;;;;;;1880885;76;21034;-53
2021/07/02 07:50:47;;;;;;;10.23;6.28;;;;;;;;;;1883297;75;21029;-51
2021/07/02 07:53:14;;;;;;;10.55;6.83;;;;;;;;;;1901518;75;21486;-48
2021/07/02 07:55:44;;;;;;;16.10;6.87;;;;;;;;;;1904175;75;21020;-51
2021/07/02 07:58:12;;;;;;;11.15;6.85;;;;;;;;;;1904342;75;21105;-51
2021/07/02 08:00:41;;;;;;;8.15;5.92;;;;;;;;;;1903838;75;21087;-51
2021/07/02 08:03:10;;;;;;;9.73;5.55;;;;;;;;;;1903616;75;21027;-51
2021/07/02 08:05:39;;;;;;;6.50;5.80;;;;;;;;;;1904409;75;21035;-54
2021/07/02 08:08:09;;;;;;;8.65;6.15;;;;;;;;;;1904081;74;21097;-51
2021/07/02 08:10:38;;;;;;;8.40;6.08;;;;;;;;;;1931417;74;21047;-51
2021/07/02 08:13:07;;;;;;;9.15;6.42;;;;;;;;;;1934375;74;21090;-49
2021/07/02 08:15:36;;;;;;;12.13;6.28;;;;;;;;;;1934710;74;21095;-51
2021/07/02 08:18:04;;;;;;;9.40;6.58;;;;;;;;;;1920931;74;21097;-51
2021/07/02 08:20:33;;;;;;;9.60;6.83;;;;;;;;;;1906938;74;21207;-52
2021/07/02 08:23:02;;;;;;;11.60;6.35;;;;;;;;;;1904141;75;21035;-51
2021/07/02 08:25:31;;;;;;;22.75;7.55;;;;;;;;;;1904093;75;21055;-52
2021/07/02 08:30:59;;;;;;;9.35;6.28;;;;;;;;;;1903603;74;21176;-53
2021/07/02 08:33:35;;;;;;;8.30;5.58;;;;;;;;;;1903478;75;21019;-50
2021/07/02 08:36:08;;;;;;;14.87;5.37;;;;;;;;;;1933842;74;21027;-48
2021/07/02 08:38:37;;;;;;;12.30;6.40;;;;;;;;;;1934299;74;21555;-51
2021/07/02 08:41:11;;;;;;;14.47;6.33;;;;;;;;;;1908497;74;21180;-51
2021/07/02 08:43:36;;;;;;;7.78;5.65;;;;;;;;;;1900496;75;21023;-51
2021/07/02 08:46:05;;;;;;;10.55;5.60;;;;;;;;;;1901251;75;21060;-49
2021/07/02 08:48:34;;;;;;;7.65;4.80;;;;;;;;;;1900819;75;21118;-48
2021/07/02 08:51:03;;;;;;;14.30;5.72;;;;;;;;;;1900178;74;21025;-50
2021/07/02 08:53:32;;;;;;;5.75;5.20;;;;;;;;;;1890392;75;21479;-46
2021/07/02 08:56:03;;;;;;;9.48;5.92;;;;;;;;;;1895456;75;21139;-51
2021/07/02 08:58:32;;;;;;;10.72;5.62;;;;;;;;;;1880831;76;21594;-50
2021/07/02 09:01:07;;;;;;;6.80;4.97;;;;;;;;;;1879974;76;21753;-51
2021/07/02 09:03:35;;;;;;;10.15;4.83;;;;;;;;;;1880610;76;21022;-50
2021/07/02 09:06:07;;;;;;;7.35;4.62;;;;;;;;;;1881427;76;21482;-49
2021/07/02 09:08:36;;;;;;;11.43;5.78;;;;;;;;;;1881172;76;21041;-47
2021/07/02 09:11:24;;;;;;;5.60;4.90;;;;;;;;;;1881258;76;21045;-50
2021/07/02 09:13:53;;;;;;;9.53;4.92;;;;;;;;;;1881249;75;21155;-49
2021/07/02 09:16:26;;;;;;;8.60;5.10;;;;;;;;;;1881251;75;21034;-49
2021/07/02 09:18:55;;;;;;;10.25;6.12;;;;;;;;;;1881316;76;21087;-49
2021/07/02 09:21:25;;;;;;;9.68;5.92;;;;;;;;;;1881699;75;21057;-51
2021/07/02 09:23:57;;;;;;;9.03;4.60;;;;;;;;;;1880687;76;21171;-46
2021/07/02 09:26:37;;;;;;;12.33;4.95;;;;;;;;;;1881049;76;21009;-49
2021/07/02 09:29:19;;;;;;;10.95;5.75;;;;;;;;;;1881424;75;22223;-49
2021/07/02 09:31:54;;;;;;;15.63;6.33;;;;;;;;;;1881676;76;21116;-45
2021/07/02 09:34:20;;;;;;;14.78;6.03;;;;;;;;;;1879127;75;21009;-50
2021/07/02 09:36:49;;;;;;;12.47;6.40;;;;;;;;;;1880829;76;21002;-47
2021/07/02 09:39:30;;;;;;;7.17;5.30;;;;;;;;;;1881128;76;21073;-49
2021/07/02 09:41:59;;;;;;;5.60;5.03;;;;;;;;;;1881485;76;21006;-50
2021/07/02 09:44:27;;;;;;;9.58;5.58;;;;;;;;;;1881316;76;21025;-50
2021/07/02 09:46:56;;;;;;;12.43;5.25;;;;;;;;;;1880057;76;21089;-46
2021/07/02 09:49:25;;;;;;;6.35;5.80;;;;;;;;;;1880773;75;21080;-49
2021/07/02 09:52:07;;;;;;;8.55;5.33;;;;;;;;;;1881277;75;21108;-51
2021/07/02 09:54:36;;;;;;;14.45;5.60;;;;;;;;;;1881137;76;21075;-51
2021/07/02 09:57:18;;;;;;;8.33;5.03;;;;;;;;;;1881468;75;21036;-47
2021/07/02 09:59:51;;;;;;;11.48;6.03;;;;;;;;;;1881108;75;21048;-50
2021/07/02 10:02:20;;;;;;;11.60;6.08;;;;;;;;;;1880052;75;21084;-47
2021/07/02 10:04:59;;;;;;;16.42;10.38;;;;;;;;;;1881327;76;21114;-51
2021/07/02 10:07:36;;;;;;;10.85;7.17;;;;;;;;;;1881402;75;21001;-48
2021/07/02 10:10:05;;;;;;;7.22;4.97;;;;;;;;;;1881249;75;21141;-49
2021/07/02 10:12:34;;;;;;;30.95;10.82;;;;;;;;;;1880984;75;21068;-49
2021/07/02 10:15:04;;;;;;;10.38;5.97;;;;;;;;;;1881224;75;21127;-50
2021/07/02 10:17:32;;;;;;;8.48;5.40;;;;;;;;;;1881393;76;21119;-47
2021/07/02 10:20:01;;;;;;;13.03;7.92;;;;;;;;;;1881352;76;21099;-48
2021/07/02 10:22:30;;;;;;;7.05;5.55;;;;;;;;;;1880507;75;21092;-47
2021/07/02 10:24:59;;;;;;;10.85;5.97;;;;;;;;;;1881212;75;21087;-51
2021/07/02 10:27:28;;;;;;;8.03;5.92;;;;;;;;;;1881471;76;21045;-47
2021/07/02 10:29:58;;;;;;;46.15;9.03;;;;;;;;;;1881152;76;21423;-49
2021/07/02 10:32:27;;;;;;;14.58;5.50;;;;;;;;;;1881463;76;21607;-51
2021/07/02 10:34:56;;;;;;;13.45;6.28;;;;;;;;;;1881483;76;21037;-50
2021/07/02 10:37:25;;;;;;;9.00;5.80;;;;;;;;;;1881198;75;21004;-47
2021/07/02 10:39:54;;;;;;;10.95;5.55;;;;;;;;;;1881398;75;21028;-49
2021/07/02 10:42:22;;;;;;;14.28;9.00;;;;;;;;;;1881447;75;21173;-49
2021/07/02 10:44:56;;;;;;;26.85;19.95;;;;;;;;;;1881055;76;21137;-49
2021/07/02 10:52:28;;;;;;;8.25;6.10;;;34.80;44.40;;;;;;1957687;73;26465;-49
2021/07/02 10:54:58;;;;;;;9.13;5.25;;;34.50;45.70;;;;;;1917542;75;21214;-49
2021/07/02 10:57:28;;;;;;;8.25;7.12;;;34.50;46.10;;;;;;1917610;75;21015;-48
2021/07/02 11:00:05;;;;;;;23.18;7.03;;;34.40;45.90;;;;;;1917192;75;21077;-48
2021/07/02 11:02:34;;;;;;;7.72;5.12;;;34.50;45.80;;;;;;1917475;73;21019;-49
2021/07/02 11:05:06;;;;;;;10.48;5.53;;;34.60;45.40;;;;;;1917351;75;21313;-52
2021/07/02 11:07:40;;;;;;;8.73;5.72;;;34.60;45.40;;;;;;1914491;74;21465;-49
2021/07/02 11:10:10;;;;;;;5.83;5.05;;;34.60;45.80;;;;;;1917694;75;21035;-50
2021/07/02 11:12:47;;;;;;;9.20;5.72;;;34.70;45.30;;;;;;1917366;74;21117;-52
2021/07/02 11:15:19;;;;;;;9.50;5.10;;;34.70;45.10;;;;;;1915986;74;20995;-52
2021/07/02 11:17:49;;;;;;;6.12;4.90;;;34.60;45.00;;;;;;1917603;75;21050;-55
2021/07/02 11:20:24;;;;;;;12.73;5.20;;;34.60;45.00;;;;;;1918224;75;21014;-55
2021/07/02 11:22:58;;;;;;;9.03;5.33;;;34.60;45.00;;;;;;1918373;75;21038;-55
2021/07/02 11:25:30;;;;;;;;;;;34.60;44.90;;;;;;1892315;75;21085;-56
2021/07/02 11:28:05;;;;;;;8.30;5.45;;;34.60;44.80;;;;;;1917681;74;20159;-55
2021/07/02 11:30:39;;;;;;;8.00;5.37;;;34.60;46.10;;;;;;1918163;74;21042;-51
2021/07/02 11:33:13;;;;;;;12.78;6.53;;;34.50;45.60;;;;;;1918296;75;21018;-52
2021/07/02 11:35:51;;;;;;;9.53;5.53;;;34.50;45.70;;;;;;1918057;75;21042;-50
2021/07/02 11:38:22;;;;;;;11.57;6.35;;;34.60;45.80;;;;;;1915619;74;21481;-52
2021/07/02 11:41:07;;;;;;;6.58;5.30;;;34.60;45.20;;;;;;1918011;75;21015;-50
2021/07/02 11:43:38;;;;;;;8.18;5.08;;;34.70;45.10;;;;;;1918247;74;21015;-52
2021/07/02 11:46:09;;;;;;;6.47;4.62;;;34.80;44.60;;;;;;1918056;74;21066;-51
2021/07/02 11:48:40;;;;;;;7.67;4.83;;;34.80;44.90;;;;;;1917967;75;21096;-51
2021/07/02 11:51:19;;;;;;;5.85;4.20;;;34.90;44.60;;;;;;1919203;73;21513;-50
2021/07/02 11:53:59;;;;;;;7.92;5.35;;;34.90;44.50;;;;;;1925071;74;21039;-52
2021/07/02 11:56:36;;;;;;;7.60;4.70;;;34.90;45.10;;;;;;1925052;74;21010;-53
2021/07/02 11:59:15;;;;;;;6.90;4.78;;;34.90;44.20;;;;;;1925273;74;21002;-53
2021/07/02 12:01:46;;;;;;;6.55;5.03;;;34.90;44.20;;;;;;1924941;74;21031;-51
2021/07/02 12:04:17;;;;;;;13.03;5.47;;;34.90;44.20;;;;;;1924523;74;21007;-49
2021/07/02 12:06:49;;;;;;;8.73;5.25;;;34.90;44.10;;;;;;1924374;74;21054;-49
2021/07/02 12:09:20;;;;;;;5.45;4.92;;;34.90;44.10;;;;;;1924217;74;21096;-51
2021/07/02 12:11:55;;;;;;;6.03;4.75;;;34.90;44.20;;;;;;1923625;74;21039;-52
2021/07/02 12:14:29;;;;;;;11.57;7.37;;;34.90;44.40;;;;;;1924146;74;21002;-52
2021/07/02 12:17:00;;;;;;;7.97;5.47;;;34.90;44.60;;;;;;1924333;74;21023;-54
2021/07/02 12:19:32;;;;;;;10.75;9.53;;;34.90;44.70;;;;;;1924689;74;21042;-54
2021/07/02 12:22:09;;;;;;;39.65;25.72;;;34.90;44.80;;;;;;1923736;74;21108;-54
2021/07/02 12:24:50;;;;;;;6.78;5.83;;;34.90;44.20;;;;;;1924686;74;21104;-54
2021/07/02 12:27:22;;;;;;;10.60;5.60;;;34.90;44.10;;;;;;1924687;74;21137;-54
2021/07/02 12:29:55;;;;;;;26.33;6.47;;;34.80;44.10;;;;;;1924659;74;21014;-54
2021/07/02 12:32:30;;;;;;;9.90;5.28;;;34.70;44.00;;;;;;1924768;74;21026;-55
2021/07/02 12:34:56;;;;;;;12.70;5.47;;;34.80;43.80;;;;;;1923021;74;21023;-55
2021/07/02 12:37:27;;;;;;;13.10;5.45;;;34.70;43.60;;;;;;1924544;74;21030;-54
2021/07/02 12:39:58;;;;;;;33.13;7.67;;;34.80;42.80;;;;;;1924603;74;21088;-53
2021/07/02 12:42:37;;;;;;;10.43;6.60;;;34.80;43.40;;;;;;1924502;74;21136;-54
2021/07/02 12:45:08;;;;;;;6.75;4.90;;;34.90;42.90;;;;;;1924630;74;21043;-53
2021/07/02 12:47:39;;;;;;;8.60;4.60;;;35.00;42.60;;;;;;1924686;74;21085;-55
2021/07/02 12:50:13;;;;;;;9.43;5.08;;;35.00;42.20;;;;;;1924639;74;21481;-54
2021/07/02 12:55:20;;;;;;;8.98;4.92;;;35.00;40.50;;;;;;1905259;75;20105;-54
2021/07/02 12:57:54;;;;;;;4.17;3.77;;;35.00;41.70;;;;;;1905203;75;21059;-54
2021/07/02 13:00:26;;;;;;;10.58;5.33;;;35.00;41.00;;;;;;1905369;75;21125;-54
2021/07/02 13:02:56;;;;;;;8.38;4.37;;;35.00;40.80;;;;;;1905266;74;21465;-55
2021/07/02 13:05:31;;;;;;;14.30;4.92;;;35.00;41.00;;;;;;1905515;75;21118;-55
2021/07/02 13:08:08;;;;;;;8.15;5.00;;;35.10;41.00;;;;;;1905292;75;21430;-55
2021/07/02 13:10:42;;;;;;;7.78;4.83;;;35.10;41.10;;;;;;1905420;75;21032;-54
2021/07/02 13:13:23;;;;;;;9.33;5.50;;;35.10;41.30;;;;;;1905383;75;21031;-54
2021/07/02 13:15:55;;;;;;;5.17;4.58;;;35.20;41.50;;;;;;1905319;75;21012;-54
2021/07/02 13:18:26;;;;;;;16.87;6.00;;;35.20;41.30;;;;;;1905360;75;21426;-55
2021/07/02 13:20:58;;;;;;;9.68;4.85;;;35.20;41.70;;;;;;1905405;75;21457;-55
2021/07/02 13:23:29;;;;;;;8.05;4.47;;;35.30;41.50;;;;;;1905383;75;21454;-55
2021/07/02 13:26:08;;;;;;;11.05;5.45;;;35.20;41.10;;;;;;1905304;74;21019;-54
2021/07/02 13:28:42;;;;;;;12.98;5.08;;;35.20;41.20;;;;;;1905302;74;21161;-55
2021/07/02 13:31:30;;;;;;;8.43;4.30;;;35.10;41.30;;;;;;1905331;75;21531;-54
2021/07/02 13:34:11;;;;;;;6.95;4.60;;;35.10;40.60;;;;;;1905222;75;21000;-55
2021/07/02 13:36:49;;;;;;;5.53;4.35;;;35.10;40.70;;;;;;1905122;74;21096;-55
2021/07/02 13:39:21;;;;;;;10.95;5.80;;;35.10;40.60;;;;;;1904729;74;21059;-55
2021/07/02 13:42:08;;;;;;;17.70;6.42;;;35.10;41.60;;;;;;1902112;74;21051;-54
2021/07/02 13:44:39;;;;;;;8.08;4.97;;;35.10;42.40;;;;;;1905187;75;21039;-54
2021/07/02 13:47:13;;;;;;;9.15;4.90;;;35.20;42.70;;;;;;1905308;74;21105;-55
2021/07/02 13:49:44;;;;;;;18.30;6.33;;;35.10;42.70;;;;;;1905424;75;21019;-55
2021/07/02 13:52:14;;;;;;;11.33;7.33;;;35.10;43.00;;;;;;1905232;74;21019;-55
2021/07/02 13:54:43;;;;;;;9.75;7.35;;;35.10;43.30;;;;;;1905131;74;21023;-54
2021/07/02 13:57:15;;;;;;;6.58;5.28;;;35.20;43.70;;;;;;1905081;75;21020;-55
2021/07/02 13:59:44;;;;;;;5.33;4.67;;;35.10;43.90;;;;;;1905288;75;21532;-55
2021/07/02 14:02:14;;;;;;;8.10;4.87;;;35.20;43.70;;;;;;1905054;75;20996;-55
2021/07/02 14:04:44;;;;;;;10.95;5.12;;;35.10;43.50;;;;;;1905133;74;21093;-55
2021/07/02 14:07:13;;;;;;;8.15;7.05;;;35.10;43.80;;;;;;1905142;75;21015;-55
2021/07/02 14:09:42;;;;;;;13.78;7.20;;;35.00;43.80;;;;;;1905150;75;21113;-54
2021/07/02 14:12:12;;;;;;;14.35;5.62;;;35.10;44.00;;;;;;1905168;75;21012;-55
2021/07/02 14:14:41;;;;;;;8.25;5.00;;;35.00;44.10;;;;;;1905182;75;20995;-55
2021/07/02 14:17:11;;;;;;;8.85;5.05;;;35.10;44.50;;;;;;1905147;75;21032;-54
2021/07/02 14:19:42;;;;;;;6.33;5.12;;;35.00;43.60;;;;;;1905160;75;21035;-55
2021/07/02 14:22:14;;;;;;;6.20;4.80;;;35.00;43.30;;;;;;1905161;75;21107;-56
2021/07/02 14:24:42;;;;;;;20.88;6.65;;;35.00;43.60;;;;;;1905082;75;21047;-55
2021/07/02 14:27:11;;;;;;;7.33;5.53;;;34.90;43.70;;;;;;1905107;75;21020;-56
2021/07/02 14:29:41;;;;;;;5.95;5.35;;;34.90;44.00;;;;;;1905123;75;21015;-56